createdAt,value
2022-09-21T00:01:43.117Z,7.10
2022-09-21T00:04:11.988Z,6.35
2022-09-21T00:06:40.929Z,9.77
2022-09-21T00:09:10.610Z,6.53
2022-09-21T00:11:39.542Z,6.95
2022-09-21T00:14:13.346Z,7.63
2022-09-21T00:16:45.475Z,14.95
2022-09-21T00:19:14.572Z,7.57
2022-09-21T00:21:43.486Z,8.65
2022-09-21T00:24:13.500Z,10.35
2022-09-21T00:26:42.415Z,13.13
2022-09-21T00:29:12.309Z,8.13
2022-09-21T00:31:41.405Z,8.65
2022-09-21T00:34:10.352Z,16.98
2022-09-21T00:36:39.335Z,15.98
2022-09-21T00:39:08.236Z,33.72
2022-09-21T00:41:37.353Z,22.33
2022-09-21T00:44:18.195Z,33.97
2022-09-21T00:46:49.417Z,31.70
2022-09-21T00:49:19.212Z,16.80
2022-09-21T00:51:49.436Z,23.05
2022-09-21T00:54:45.528Z,30.50
2022-09-21T00:57:16.986Z,27.13
2022-09-21T00:59:47.108Z,24.75
2022-09-21T01:02:16.958Z,23.13
2022-09-21T01:04:47.311Z,23.30
2022-09-21T01:07:21.190Z,14.98
2022-09-21T01:13:05.067Z,21.63
2022-09-21T01:15:56.600Z,13.90
2022-09-21T01:18:35.311Z,10.82
2022-09-21T01:21:21.058Z,19.25
2022-09-21T01:24:22.339Z,27.33
2022-09-21T01:27:06.608Z,17.23
2022-09-21T01:29:55.504Z,23.27
2022-09-21T01:32:45.730Z,26.38
2022-09-21T01:35:23.921Z,23.48
2022-09-21T01:37:59.451Z,26.23
2022-09-21T01:40:39.572Z,18.25
2022-09-21T01:43:14.212Z,19.15
2022-09-21T01:45:47.632Z,25.13
2022-09-21T01:48:17.347Z,22.13
2022-09-21T01:50:52.010Z,22.67
2022-09-21T01:53:59.213Z,14.57
2022-09-21T01:56:37.609Z,16.65
2022-09-21T01:59:31.831Z,28.65
2022-09-21T02:02:11.220Z,22.55
2022-09-21T02:04:40.767Z,16.60
2022-09-21T02:07:10.345Z,20.88
2022-09-21T02:09:39.861Z,11.73
2022-09-21T02:12:08.764Z,9.32
2022-09-21T02:14:39.196Z,13.27
2022-09-21T02:17:21.639Z,31.55
2022-09-21T02:19:59.645Z,15.93
2022-09-21T02:22:34.590Z,22.13
2022-09-21T02:25:43.325Z,15.38
2022-09-21T02:28:33.748Z,10.27
2022-09-21T02:31:38.351Z,13.98
2022-09-21T02:37:26.769Z,20.75
2022-09-21T02:40:23.918Z,17.85
2022-09-21T02:42:57.395Z,17.38
2022-09-21T02:45:36.795Z,11.52
2022-09-21T02:48:22.081Z,14.50
2022-09-21T02:50:55.503Z,16.33
2022-09-21T02:53:32.071Z,21.05
2022-09-21T02:56:06.225Z,14.43
2022-09-21T02:58:40.574Z,11.55
2022-09-21T03:01:13.739Z,12.05
2022-09-21T03:03:43.191Z,18.50
2022-09-21T03:06:12.247Z,22.48
2022-09-21T03:08:41.157Z,13.93
2022-09-21T03:11:11.985Z,11.75
2022-09-21T03:13:41.162Z,20.70
2022-09-21T03:16:10.204Z,10.25
2022-09-21T03:18:40.474Z,24.85
2022-09-21T03:21:10.577Z,22.23
2022-09-21T03:23:39.747Z,21.05
2022-09-21T03:26:09.556Z,31.10
2022-09-21T03:28:38.617Z,8.05
2022-09-21T03:31:08.080Z,13.52
2022-09-21T03:33:36.994Z,6.03
2022-09-21T03:36:06.061Z,4.55
2022-09-21T03:38:35.155Z,14.90
2022-09-21T03:41:04.168Z,8.20
2022-09-21T03:43:33.371Z,10.93
2022-09-21T03:46:02.371Z,6.25
2022-09-21T03:48:33.685Z,11.70
2022-09-21T03:51:02.598Z,6.97
2022-09-21T03:53:31.481Z,11.27
2022-09-21T03:56:00.406Z,10.93
2022-09-21T03:58:29.277Z,11.18
2022-09-21T04:01:04.606Z,9.32
2022-09-21T04:03:33.473Z,7.00
2022-09-21T04:06:02.790Z,11.07
2022-09-21T04:08:34.592Z,10.18
2022-09-21T04:11:03.620Z,5.25
2022-09-21T04:13:32.454Z,6.60
2022-09-21T04:16:01.381Z,4.45
2022-09-21T04:18:30.471Z,5.07
2022-09-21T04:20:59.605Z,6.57
2022-09-21T04:23:28.726Z,5.75
2022-09-21T04:25:59.123Z,10.20
2022-09-21T04:28:28.096Z,5.50
2022-09-21T04:30:57.002Z,5.40
2022-09-21T04:33:25.921Z,4.80
2022-09-21T04:35:58.283Z,4.28
2022-09-21T04:38:27.186Z,9.77
2022-09-21T04:40:59.757Z,8.93
2022-09-21T04:43:28.793Z,12.63
2022-09-21T04:45:57.742Z,7.82
2022-09-21T04:48:26.823Z,5.47
2022-09-21T04:50:55.718Z,5.97
2022-09-21T04:53:24.884Z,5.28
2022-09-21T04:55:53.824Z,7.18
2022-09-21T04:58:24.618Z,4.63
2022-09-21T05:00:56.257Z,5.97
2022-09-21T05:03:26.313Z,3.58
2022-09-21T05:05:57.645Z,6.18
2022-09-21T05:08:46.291Z,5.72
2022-09-21T05:11:17.629Z,4.80
2022-09-21T05:13:47.186Z,6.72
2022-09-21T05:16:17.546Z,7.43
2022-09-21T05:18:47.308Z,11.00
2022-09-21T05:21:17.004Z,5.32
2022-09-21T05:23:45.965Z,19.67
2022-09-21T05:26:14.993Z,4.75
2022-09-21T05:28:44.226Z,12.02
2022-09-21T05:31:25.362Z,5.50
2022-09-21T05:33:59.725Z,6.35
2022-09-21T05:36:47.069Z,5.28
2022-09-21T05:39:16.309Z,4.85
2022-09-21T05:41:45.596Z,7.80
2022-09-21T05:44:16.257Z,5.78
2022-09-21T05:46:56.185Z,9.50
2022-09-21T05:49:40.539Z,7.45
2022-09-21T05:52:14.758Z,5.32
2022-09-21T05:55:05.448Z,10.70
2022-09-21T05:57:56.455Z,9.40
2022-09-21T06:00:26.044Z,10.35
2022-09-21T06:03:31.919Z,7.18
2022-09-21T06:06:01.002Z,5.28
2022-09-21T06:08:30.145Z,8.55
2022-09-21T06:10:59.747Z,5.50
2022-09-21T06:13:28.814Z,7.07
2022-09-21T06:15:58.195Z,4.28
2022-09-21T06:18:27.072Z,12.18
2022-09-21T06:20:56.026Z,10.60
2022-09-21T06:23:24.861Z,6.97
2022-09-21T06:25:58.499Z,5.95
2022-09-21T06:28:29.080Z,7.35
2022-09-21T06:30:59.568Z,4.47
2022-09-21T06:33:28.611Z,4.50
2022-09-21T06:36:01.790Z,3.72
2022-09-21T06:38:30.855Z,4.65
2022-09-21T06:41:04.198Z,5.65
2022-09-21T06:46:04.043Z,4.75
2022-09-21T06:48:35.552Z,5.43
2022-09-21T06:51:06.999Z,9.80
2022-09-21T06:53:36.358Z,3.55
2022-09-21T06:56:10.044Z,3.20
2022-09-21T06:58:39.534Z,4.88
2022-09-21T07:01:12.834Z,6.18
2022-09-21T07:06:16.781Z,5.15
2022-09-21T07:11:34.781Z,5.40
2022-09-21T07:14:05.410Z,9.05
2022-09-21T07:16:34.758Z,5.72
2022-09-21T07:19:11.171Z,4.53
2022-09-21T07:21:40.520Z,5.30
2022-09-21T07:24:12.192Z,5.40
2022-09-21T07:26:41.814Z,4.22
2022-09-21T07:29:10.906Z,5.95
2022-09-21T07:31:40.043Z,6.32
2022-09-21T07:34:09.289Z,5.63
2022-09-21T07:36:38.489Z,3.92
2022-09-21T07:39:07.438Z,6.88
2022-09-21T07:41:36.588Z,3.97
2022-09-21T07:44:05.646Z,5.95
2022-09-21T07:46:34.703Z,6.68
2022-09-21T07:49:05.554Z,4.10
2022-09-21T07:51:34.674Z,5.60
2022-09-21T07:54:04.138Z,6.35
2022-09-21T07:56:33.107Z,9.60
2022-09-21T07:59:08.113Z,6.45
2022-09-21T08:01:39.628Z,7.97
2022-09-21T08:04:12.702Z,9.07
2022-09-21T08:06:41.699Z,10.85
2022-09-21T08:09:10.644Z,5.82
2022-09-21T08:11:40.259Z,4.93
2022-09-21T08:14:09.307Z,7.35
2022-09-21T08:16:40.135Z,5.60
2022-09-21T08:19:09.119Z,7.32
2022-09-21T08:21:38.056Z,9.02
2022-09-21T08:24:07.284Z,11.63
2022-09-21T08:26:36.400Z,5.28
2022-09-21T08:29:06.088Z,6.65
2022-09-21T08:31:35.277Z,5.20
2022-09-21T08:34:04.218Z,7.15
2022-09-21T08:36:33.382Z,5.93
2022-09-21T08:39:05.049Z,6.40
2022-09-21T08:42:11.126Z,6.55
2022-09-21T08:44:55.339Z,6.63
2022-09-21T08:47:30.763Z,8.57
2022-09-21T08:50:03.412Z,6.47
2022-09-21T08:52:34.461Z,7.23
2022-09-21T08:55:20.236Z,8.32
2022-09-21T08:57:49.294Z,5.00
2022-09-21T09:00:20.349Z,4.90
2022-09-21T09:03:08.361Z,4.95
2022-09-21T09:06:01.481Z,7.00
2022-09-21T09:09:00.415Z,5.23
2022-09-21T09:11:54.126Z,9.25
2022-09-21T09:15:10.784Z,14.05
2022-09-21T09:18:09.733Z,14.73
2022-09-21T09:20:43.434Z,9.40
2022-09-21T09:23:27.098Z,5.65
2022-09-21T09:28:53.005Z,4.80
2022-09-21T09:31:30.262Z,7.43
2022-09-21T09:34:11.031Z,6.68
2022-09-21T09:36:57.804Z,6.55
2022-09-21T09:39:31.772Z,12.82
2022-09-21T09:42:08.246Z,4.03
2022-09-21T09:44:46.413Z,6.35
2022-09-21T09:47:41.898Z,6.25
2022-09-21T09:50:18.485Z,5.82
2022-09-21T09:52:48.754Z,7.18
2022-09-21T09:55:23.975Z,15.82
2022-09-21T09:57:53.751Z,11.65
2022-09-21T10:00:24.034Z,6.15
2022-09-21T10:02:55.579Z,7.38
2022-09-21T10:05:42.651Z,13.40
2022-09-21T10:08:43.225Z,5.70
2022-09-21T10:11:18.927Z,17.38
2022-09-21T10:13:49.465Z,7.85
2022-09-21T10:16:25.135Z,5.85
2022-09-21T10:19:02.758Z,8.43
2022-09-21T10:21:53.818Z,7.32
2022-09-21T10:24:36.944Z,6.88
2022-09-21T10:27:15.229Z,7.00
2022-09-21T10:29:45.882Z,8.43
2022-09-21T10:32:15.233Z,6.30
2022-09-21T10:35:04.607Z,8.27
2022-09-21T10:37:42.496Z,6.55
2022-09-21T10:40:25.378Z,9.40
2022-09-21T10:42:57.369Z,9.10
2022-09-21T10:45:35.987Z,6.00
2022-09-21T10:48:07.644Z,7.85
2022-09-21T10:50:47.759Z,5.78
2022-09-21T10:53:19.359Z,6.60
2022-09-21T10:56:15.169Z,5.78
2022-09-21T10:59:22.913Z,8.38
2022-09-21T11:01:54.593Z,6.15
2022-09-21T11:04:29.978Z,6.07
2022-09-21T11:07:36.494Z,5.97
2022-09-21T11:10:34.254Z,6.03
2022-09-21T11:13:37.934Z,5.15
2022-09-21T11:16:27.778Z,7.30
2022-09-21T11:19:06.120Z,6.60
2022-09-21T11:21:59.381Z,9.32
2022-09-21T11:24:50.660Z,8.25
2022-09-21T11:27:30.018Z,6.75
2022-09-21T11:30:19.718Z,7.80
2022-09-21T11:33:10.908Z,5.85
2022-09-21T11:36:27.960Z,7.60
2022-09-21T11:39:13.543Z,8.18
2022-09-21T11:42:02.666Z,8.50
2022-09-21T11:45:18.413Z,9.88
2022-09-21T11:48:18.215Z,9.55
2022-09-21T11:51:21.209Z,9.18
2022-09-21T11:54:27.217Z,13.13
2022-09-21T11:57:23.015Z,23.05
2022-09-21T12:00:22.914Z,19.02
2022-09-21T12:03:10.108Z,16.42
2022-09-21T12:06:06.459Z,20.17
2022-09-21T12:08:53.432Z,15.48
2022-09-21T12:11:34.639Z,20.83
2022-09-21T12:14:03.472Z,15.52
2022-09-21T12:17:05.607Z,12.45
2022-09-21T12:19:35.152Z,18.17
2022-09-21T12:22:21.351Z,21.67
2022-09-21T12:24:59.678Z,12.20
2022-09-21T12:28:14.766Z,18.70
2022-09-21T12:30:47.952Z,8.98
2022-09-21T12:33:48.094Z,11.32
2022-09-21T12:36:21.980Z,18.55
2022-09-21T12:39:15.057Z,16.05
2022-09-21T12:42:18.308Z,8.75
2022-09-21T12:44:58.288Z,10.27
2022-09-21T12:47:38.946Z,11.23
2022-09-21T12:50:16.934Z,13.05
2022-09-21T12:52:45.946Z,15.80
2022-09-21T12:55:33.161Z,15.30
2022-09-21T12:58:42.372Z,14.13
2022-09-21T13:01:17.707Z,6.35
2022-09-21T13:04:20.347Z,10.68
2022-09-21T13:07:26.165Z,6.97
2022-09-21T13:09:55.306Z,6.40
2022-09-21T13:12:28.935Z,11.05
2022-09-21T13:15:14.936Z,9.25
2022-09-21T13:17:43.884Z,10.20
2022-09-21T13:20:21.732Z,10.70
2022-09-21T13:22:59.355Z,18.52
2022-09-21T13:25:30.966Z,10.50
2022-09-21T13:28:13.096Z,14.85
2022-09-21T13:30:46.278Z,10.77
2022-09-21T13:33:21.370Z,7.78
2022-09-21T13:35:53.349Z,8.52
2022-09-21T13:38:55.748Z,8.88
2022-09-21T13:41:45.765Z,8.88
2022-09-21T13:44:42.117Z,8.07
2022-09-21T13:47:13.237Z,9.93
2022-09-21T13:49:53.939Z,5.47
2022-09-21T13:52:32.414Z,6.90
2022-09-21T13:55:05.359Z,15.43
2022-09-21T13:57:43.905Z,18.75
2022-09-21T14:00:15.889Z,10.27
2022-09-21T14:02:52.782Z,15.02
2022-09-21T14:05:44.673Z,11.45
2022-09-21T14:08:16.722Z,12.45
2022-09-21T14:11:00.191Z,11.80
2022-09-21T14:14:00.663Z,12.03
2022-09-21T14:16:53.370Z,7.53
2022-09-21T14:19:22.340Z,12.02
2022-09-21T14:22:09.387Z,10.25
2022-09-21T14:24:46.158Z,11.95
2022-09-21T14:27:43.446Z,10.90
2022-09-21T14:30:23.512Z,12.68
2022-09-21T14:33:23.875Z,11.48
2022-09-21T14:35:54.086Z,14.32
2022-09-21T14:38:31.537Z,13.15
2022-09-21T14:41:08.651Z,7.57
2022-09-21T14:43:40.796Z,9.60
2022-09-21T14:46:28.155Z,8.82
2022-09-21T14:49:15.414Z,10.60
2022-09-21T14:52:20.197Z,11.93
2022-09-21T14:55:16.867Z,12.55
2022-09-21T14:58:07.234Z,13.00
2022-09-21T15:00:42.296Z,8.20
2022-09-21T15:03:32.852Z,10.82
2022-09-21T15:06:41.155Z,9.55
2022-09-21T15:09:55.088Z,9.60
2022-09-21T15:12:40.345Z,8.20
2022-09-21T15:15:25.102Z,9.23
2022-09-21T15:18:03.095Z,10.68
2022-09-21T15:20:33.468Z,10.82
2022-09-21T15:23:03.205Z,9.35
2022-09-21T15:25:35.372Z,12.02
2022-09-21T15:28:05.415Z,9.50
2022-09-21T15:30:42.196Z,6.53
2022-09-21T15:33:15.210Z,8.85
2022-09-21T15:35:48.520Z,7.18
2022-09-21T15:38:32.099Z,9.77
2022-09-21T15:41:04.300Z,7.83
2022-09-21T15:43:35.621Z,5.03
2022-09-21T15:46:07.256Z,5.18
2022-09-21T15:48:48.269Z,5.07
2022-09-21T15:51:25.840Z,7.45
2022-09-21T15:53:58.888Z,5.82
2022-09-21T15:56:30.034Z,7.72
2022-09-21T15:59:10.094Z,5.85
2022-09-21T16:01:48.800Z,5.30
2022-09-21T16:04:24.057Z,5.75
2022-09-21T16:07:08.004Z,6.35
2022-09-21T16:09:46.185Z,5.03
2022-09-21T16:12:40.482Z,6.95
2022-09-21T16:15:20.022Z,7.57
2022-09-21T16:18:03.992Z,5.00
2022-09-21T16:20:49.100Z,5.45
2022-09-21T16:23:26.676Z,7.15
2022-09-21T16:26:01.871Z,8.02
2022-09-21T16:28:43.523Z,8.02
2022-09-21T16:31:31.123Z,6.95
2022-09-21T16:34:02.798Z,7.03
2022-09-21T16:36:32.887Z,9.68
2022-09-21T16:39:08.639Z,8.23
2022-09-21T16:41:43.687Z,8.55
2022-09-21T16:44:21.853Z,7.15
2022-09-21T16:46:54.875Z,8.25
2022-09-21T16:49:30.216Z,6.25
2022-09-21T16:52:00.340Z,6.53
2022-09-21T16:54:30.099Z,6.57
2022-09-21T16:57:02.326Z,7.10
2022-09-21T16:59:31.672Z,8.35
2022-09-21T17:02:01.534Z,7.97
2022-09-21T17:04:33.731Z,5.82
2022-09-21T17:07:06.085Z,8.27
2022-09-21T17:09:39.456Z,7.45
2022-09-21T17:12:10.809Z,8.30
2022-09-21T17:14:43.062Z,7.68
2022-09-21T17:17:22.785Z,7.15
2022-09-21T17:19:54.037Z,6.28
2022-09-21T17:22:23.532Z,8.45
2022-09-21T17:24:55.854Z,6.60
2022-09-21T17:27:27.748Z,7.68
2022-09-21T17:29:57.601Z,6.35
2022-09-21T17:32:26.730Z,7.38
2022-09-21T17:35:27.697Z,8.80
2022-09-21T17:37:56.559Z,7.72
2022-09-21T17:40:25.967Z,7.85
2022-09-21T17:43:17.122Z,5.45
2022-09-21T17:45:55.353Z,5.55
2022-09-21T17:48:24.834Z,7.38
2022-09-21T17:50:54.129Z,6.03
2022-09-21T17:53:35.695Z,6.30
2022-09-21T17:56:19.504Z,6.82
2022-09-21T17:59:03.686Z,9.25
2022-09-21T18:01:34.960Z,6.13
2022-09-21T18:04:05.178Z,8.00
2022-09-21T18:06:35.355Z,8.00
2022-09-21T18:09:05.057Z,10.80
2022-09-21T18:11:48.967Z,7.20
2022-09-21T18:14:39.863Z,8.32
2022-09-21T18:17:26.968Z,8.65
2022-09-21T18:20:26.019Z,6.82
2022-09-21T18:23:20.175Z,9.95
2022-09-21T18:25:53.099Z,8.50
2022-09-21T18:28:47.140Z,9.77
2022-09-21T18:31:43.097Z,7.68
2022-09-21T18:34:45.743Z,7.70
2022-09-21T18:37:33.233Z,11.27
2022-09-21T18:40:40.408Z,7.85
2022-09-21T18:43:32.352Z,7.82
2022-09-21T18:46:08.090Z,12.50
2022-09-21T18:48:51.226Z,8.80
2022-09-21T18:51:45.640Z,9.38
2022-09-21T18:54:23.184Z,8.48
2022-09-21T18:56:52.245Z,9.55
2022-09-21T18:59:21.820Z,7.18
2022-09-21T19:01:51.711Z,7.93
2022-09-21T19:04:21.256Z,9.35
2022-09-21T19:06:59.089Z,7.18
2022-09-21T19:09:37.784Z,7.95
2022-09-21T19:12:28.279Z,8.77
2022-09-21T19:16:01.226Z,11.13
2022-09-21T19:18:42.302Z,9.48
2022-09-21T19:21:21.188Z,7.85
2022-09-21T19:24:08.238Z,8.02
2022-09-21T19:26:47.816Z,8.57
2022-09-21T19:29:53.233Z,6.95
2022-09-21T19:32:48.257Z,9.15
2022-09-21T19:35:23.765Z,11.50
2022-09-21T19:37:54.791Z,7.15
2022-09-21T19:40:28.534Z,8.82
2022-09-21T19:43:21.756Z,11.82
2022-09-21T19:46:27.654Z,10.38
2022-09-21T19:49:02.549Z,11.65
2022-09-21T19:51:37.335Z,10.80
2022-09-21T19:54:34.788Z,12.40
2022-09-21T19:57:27.254Z,11.25
2022-09-21T19:59:56.357Z,12.88
2022-09-21T20:02:50.047Z,14.32
2022-09-21T20:05:25.288Z,11.27
2022-09-21T20:08:15.305Z,14.05
2022-09-21T20:10:58.257Z,15.75
2022-09-21T20:13:39.420Z,12.13
2022-09-21T20:16:45.115Z,12.65
2022-09-21T20:19:45.682Z,11.35
2022-09-21T20:22:17.296Z,11.93
2022-09-21T20:25:10.940Z,15.68
2022-09-21T20:27:51.728Z,12.43
2022-09-21T20:30:23.671Z,12.60
2022-09-21T20:33:03.778Z,9.48
2022-09-21T20:35:32.930Z,13.48
2022-09-21T20:38:03.130Z,12.55
2022-09-21T20:40:33.092Z,12.00
2022-09-21T20:43:02.449Z,8.40
2022-09-21T20:45:33.335Z,10.77
2022-09-21T20:48:22.643Z,14.88
2022-09-21T20:50:52.472Z,10.75
2022-09-21T20:53:21.394Z,13.05
2022-09-21T20:55:58.564Z,10.35
2022-09-21T20:58:27.498Z,12.95
2022-09-21T21:00:59.119Z,12.70
2022-09-21T21:03:28.311Z,16.33
2022-09-21T21:06:11.956Z,9.05
2022-09-21T21:08:40.971Z,13.05
2022-09-21T21:11:11.859Z,10.70
2022-09-21T21:13:41.046Z,12.63
2022-09-21T21:16:12.376Z,14.48
2022-09-21T21:18:42.827Z,14.93
2022-09-21T21:21:12.075Z,13.63
2022-09-21T21:23:59.143Z,12.95
2022-09-21T21:26:44.223Z,11.95
2022-09-21T21:29:17.201Z,13.00
2022-09-21T21:31:48.865Z,13.27
2022-09-21T21:34:18.279Z,12.70
2022-09-21T21:36:47.241Z,14.13
2022-09-21T21:39:16.093Z,13.40
2022-09-21T21:41:45.019Z,9.48
2022-09-21T21:44:13.937Z,14.57
2022-09-21T21:46:43.062Z,11.73
2022-09-21T21:49:12.175Z,16.17
2022-09-21T21:51:41.235Z,12.75
2022-09-21T21:54:10.135Z,10.00
2022-09-21T21:56:39.290Z,10.13
2022-09-21T21:59:08.254Z,13.73
2022-09-21T22:01:37.164Z,10.15
2022-09-21T22:04:06.477Z,11.05
2022-09-21T22:06:36.965Z,9.93
2022-09-21T22:09:07.667Z,10.07
2022-09-21T22:11:37.245Z,10.23
2022-09-21T22:14:07.668Z,13.50
2022-09-21T22:16:39.095Z,13.02
2022-09-21T22:19:10.138Z,12.10
2022-09-21T22:21:50.379Z,9.90
2022-09-21T22:24:23.348Z,9.80
2022-09-21T22:26:52.313Z,9.90
2022-09-21T22:29:21.321Z,9.05
2022-09-21T22:31:51.397Z,8.63
2022-09-21T22:34:20.680Z,13.88
2022-09-21T22:36:49.700Z,11.13
2022-09-21T22:39:18.721Z,13.10
2022-09-21T22:41:47.568Z,9.07
2022-09-21T22:44:16.401Z,13.73
2022-09-21T22:46:45.279Z,9.25
2022-09-21T22:49:14.232Z,9.52
2022-09-21T22:51:43.088Z,7.53
2022-09-21T22:54:11.947Z,10.48
2022-09-21T22:56:40.762Z,8.10
2022-09-21T22:59:10.073Z,7.60
2022-09-21T23:01:41.096Z,9.75
2022-09-21T23:04:13.443Z,7.40
2022-09-21T23:06:45.398Z,8.45
2022-09-21T23:09:17.508Z,9.13
2022-09-21T23:11:49.060Z,9.32
2022-09-21T23:14:18.975Z,6.82
2022-09-21T23:16:47.937Z,9.57
2022-09-21T23:19:16.922Z,16.05
2022-09-21T23:21:48.151Z,11.02
2022-09-21T23:24:17.428Z,9.30
2022-09-21T23:26:46.921Z,13.00
2022-09-21T23:29:17.784Z,17.17
2022-09-21T23:31:47.099Z,11.57
2022-09-21T23:34:16.768Z,12.05
2022-09-21T23:36:46.608Z,11.25
2022-09-21T23:39:16.806Z,12.98
2022-09-21T23:41:45.998Z,9.43
2022-09-21T23:44:15.168Z,12.65
2022-09-21T23:46:44.442Z,14.55
2022-09-21T23:49:13.399Z,14.70
2022-09-21T23:51:42.899Z,11.75
2022-09-21T23:54:11.974Z,10.80
2022-09-21T23:56:40.866Z,12.43
2022-09-21T23:59:10.999Z,14.15
